createdAt,value
2019-05-25T00:01:12.538Z,96437.99
2019-05-25T00:03:42.086Z,96440.48
2019-05-25T00:06:11.554Z,96437.34
2019-05-25T00:08:41.104Z,96436.73
2019-05-25T00:11:10.473Z,96434.39
2019-05-25T00:13:40.279Z,96428.50
2019-05-25T00:16:09.787Z,96429.16
2019-05-25T00:18:39.301Z,96429.48
2019-05-25T00:21:08.767Z,96430.81
2019-05-25T00:23:38.258Z,96429.48
2019-05-25T00:26:07.777Z,96422.97
2019-05-25T00:28:37.363Z,96421.95
2019-05-25T00:31:06.887Z,96422.39
2019-05-25T00:33:36.549Z,96425.30
2019-05-25T00:36:06.177Z,96423.55
2019-05-25T00:38:35.666Z,96432.13
2019-05-25T00:41:05.219Z,96430.88
2019-05-25T00:43:34.674Z,96437.42
2019-05-25T00:46:04.259Z,96444.98
2019-05-25T00:48:33.766Z,96450.70
2019-05-25T00:51:03.261Z,96438.07
2019-05-25T00:53:32.871Z,96445.05
2019-05-25T00:56:02.435Z,96442.31
2019-05-25T00:58:31.980Z,96442.48
2019-05-25T01:01:01.627Z,96438.72
2019-05-25T01:03:31.101Z,96436.53
2019-05-25T01:06:00.646Z,96439.16
2019-05-25T01:08:30.141Z,96433.51
2019-05-25T01:10:59.722Z,96442.19
2019-05-25T01:13:29.228Z,96434.43
2019-05-25T01:15:59.093Z,96434.32
2019-05-25T01:18:28.567Z,96440.24
2019-05-25T01:20:58.101Z,96433.39
2019-05-25T01:23:27.627Z,96440.22
2019-05-25T01:25:57.068Z,96432.09
2019-05-25T01:28:26.490Z,96438.97
2019-05-25T01:30:56.270Z,96441.58
2019-05-25T01:33:25.815Z,96441.75
2019-05-25T01:35:55.358Z,96436.27
2019-05-25T01:38:24.820Z,96443.33
2019-05-25T01:40:54.293Z,96443.64
2019-05-25T01:43:23.897Z,96442.95
2019-05-25T01:45:53.365Z,96445.81
2019-05-25T01:48:22.880Z,96455.13
2019-05-25T01:50:52.460Z,96450.84
2019-05-25T01:53:22.205Z,96445.87
2019-05-25T01:55:51.660Z,96440.51
2019-05-25T01:58:21.119Z,96446.34
2019-05-25T02:00:50.597Z,96437.03
2019-05-25T02:03:20.392Z,96438.91
2019-05-25T02:05:49.812Z,96434.10
2019-05-25T02:08:19.279Z,96438.64
2019-05-25T02:10:48.759Z,96433.28
2019-05-25T02:13:18.284Z,96428.24
2019-05-25T02:15:47.972Z,96425.61
2019-05-25T02:18:17.416Z,96427.41
2019-05-25T02:20:46.886Z,96433.94
2019-05-25T02:23:16.457Z,96436.34
2019-05-25T02:25:46.069Z,96435.48
2019-05-25T02:28:15.652Z,96438.75
2019-05-25T02:30:45.123Z,96438.52
2019-05-25T02:33:14.649Z,96441.19
2019-05-25T02:35:44.199Z,96432.75
2019-05-25T02:38:13.772Z,96430.38
2019-05-25T02:40:43.338Z,96429.97
2019-05-25T02:43:13.010Z,96433.27
2019-05-25T02:45:42.559Z,96436.48
2019-05-25T02:48:12.075Z,96433.03
2019-05-25T02:50:41.546Z,96436.30
2019-05-25T02:53:11.003Z,96442.98
2019-05-25T02:55:40.565Z,96450.56
2019-05-25T02:58:10.130Z,96444.52
2019-05-25T03:00:39.748Z,96451.50
2019-05-25T03:03:09.288Z,96462.63
2019-05-25T03:05:38.838Z,96434.42
2019-05-25T03:08:08.396Z,96434.42
2019-05-25T03:10:37.995Z,96429.22
2019-05-25T03:13:07.504Z,96431.75
2019-05-25T03:15:36.967Z,96432.25
2019-05-25T03:18:06.465Z,96438.09
2019-05-25T03:20:35.987Z,96438.09
2019-05-25T03:23:05.896Z,96443.19
2019-05-25T03:25:48.697Z,96443.19
2019-05-25T03:28:06.667Z,96445.56
2019-05-25T03:30:37.902Z,96460.38
2019-05-25T03:33:10.476Z,96460.38
2019-05-25T03:35:40.089Z,96454.23
2019-05-25T03:38:09.690Z,96468.33
2019-05-25T03:40:39.663Z,96468.33
2019-05-25T03:43:09.132Z,96477.16
2019-05-25T03:45:38.702Z,96478.88
2019-05-25T03:48:08.230Z,96478.88
2019-05-25T03:50:37.686Z,96477.94
2019-05-25T03:53:07.159Z,96477.94
2019-05-25T03:55:36.599Z,96473.44
2019-05-25T03:58:06.066Z,96473.44
2019-05-25T04:00:36.914Z,96474.63
2019-05-25T04:03:06.938Z,96476.30
2019-05-25T04:05:36.430Z,96476.30
2019-05-25T04:08:06.049Z,96482.38
2019-05-25T04:10:38.638Z,96476.59
2019-05-25T04:13:06.761Z,96494.53
2019-05-25T04:15:36.279Z,96476.58
2019-05-25T04:18:05.784Z,96476.58
2019-05-25T04:20:35.807Z,96490.07
2019-05-25T04:23:05.314Z,96483.20
2019-05-25T04:25:34.918Z,96483.20
2019-05-25T04:28:04.439Z,96481.60
2019-05-25T04:30:34.265Z,96487.79
2019-05-25T04:33:03.740Z,96485.41
2019-05-25T04:35:33.264Z,96493.95
2019-05-25T04:38:02.857Z,96486.02
2019-05-25T04:40:32.411Z,96491.52
2019-05-25T04:43:01.961Z,96485.65
2019-05-25T04:45:31.421Z,96488.89
2019-05-25T04:48:01.077Z,96501.02
2019-05-25T04:50:30.503Z,96500.56
2019-05-25T04:52:59.991Z,96499.42
2019-05-25T04:55:29.482Z,96503.78
2019-05-25T04:57:59.060Z,96496.55
2019-05-25T05:00:29.030Z,96502.94
2019-05-25T05:02:58.849Z,96503.56
2019-05-25T05:05:28.405Z,96503.66
2019-05-25T05:07:57.973Z,96503.61
2019-05-25T05:10:27.744Z,96505.69
2019-05-25T05:12:57.359Z,96505.41
2019-05-25T05:15:26.882Z,96509.99
2019-05-25T05:17:56.333Z,96511.89
2019-05-25T05:20:25.832Z,96506.92
2019-05-25T05:22:55.354Z,96506.49
2019-05-25T05:25:24.855Z,96508.13
2019-05-25T05:27:54.691Z,96504.64
2019-05-25T05:30:32.808Z,96507.47
2019-05-25T05:33:02.416Z,96508.13
2019-05-25T05:35:33.578Z,96514.56
2019-05-25T05:38:05.955Z,96511.25
2019-05-25T05:40:37.257Z,96514.16
2019-05-25T05:43:11.509Z,96514.11
2019-05-25T05:45:43.692Z,96516.98
2019-05-25T05:48:15.061Z,96519.08
2019-05-25T05:50:49.423Z,96512.36
2019-05-25T05:53:21.288Z,96521.05
2019-05-25T05:55:50.894Z,96518.48
2019-05-25T05:58:20.484Z,96525.79
2019-05-25T06:00:50.094Z,96522.14
2019-05-25T06:03:19.587Z,96526.59
2019-05-25T06:05:49.301Z,96526.52
2019-05-25T06:08:18.781Z,96524.78
2019-05-25T06:10:48.359Z,96526.55
2019-05-25T06:13:17.879Z,96526.20
2019-05-25T06:15:51.227Z,96525.75
2019-05-25T06:18:20.784Z,96526.00
2019-05-25T06:20:50.511Z,96523.78
2019-05-25T06:23:20.012Z,96528.15
2019-05-25T06:25:49.470Z,96535.36
2019-05-25T06:28:22.230Z,96530.77
2019-05-25T06:30:50.301Z,96531.14
2019-05-25T06:33:19.862Z,96539.31
2019-05-25T06:35:49.547Z,96538.66
2019-05-25T06:38:19.134Z,96537.16
2019-05-25T06:40:48.725Z,96533.37
2019-05-25T06:43:18.156Z,96536.94
2019-05-25T06:45:47.953Z,96534.53
2019-05-25T06:48:17.431Z,96539.58
2019-05-25T06:50:46.905Z,96540.47
2019-05-25T06:53:16.406Z,96542.00
2019-05-25T06:55:46.002Z,96536.20
2019-05-25T06:58:15.634Z,96537.84
2019-05-25T07:00:45.243Z,96529.56
2019-05-25T07:03:14.622Z,96529.39
2019-05-25T07:05:44.214Z,96536.06
2019-05-25T07:08:14.773Z,96530.14
2019-05-25T07:10:44.259Z,96543.19
2019-05-25T07:13:13.748Z,96541.63
2019-05-25T07:15:43.277Z,96537.00
2019-05-25T07:18:12.892Z,96536.23
2019-05-25T07:20:42.386Z,96542.47
2019-05-25T07:23:11.894Z,96540.30
2019-05-25T07:25:41.480Z,96538.69
2019-05-25T07:28:11.007Z,96540.72
2019-05-25T07:30:40.753Z,96540.96
2019-05-25T07:33:10.372Z,96544.05
2019-05-25T07:35:39.781Z,96544.20
2019-05-25T07:38:09.363Z,96548.13
2019-05-25T07:40:38.864Z,96549.11
2019-05-25T07:43:08.458Z,96544.38
2019-05-25T07:45:37.897Z,96547.77
2019-05-25T07:48:07.588Z,96544.14
2019-05-25T07:50:37.041Z,96547.39
2019-05-25T07:53:06.564Z,96546.28
2019-05-25T07:55:35.996Z,96544.20
2019-05-25T07:58:16.490Z,96549.28
2019-05-25T08:00:36.992Z,96548.87
2019-05-25T08:03:06.703Z,96546.48
2019-05-25T08:05:36.196Z,96550.84
2019-05-25T08:08:05.824Z,96553.10
2019-05-25T08:10:35.225Z,96550.28
2019-05-25T08:13:04.726Z,96548.63
2019-05-25T08:15:34.350Z,96549.26
2019-05-25T08:18:03.820Z,96551.77
2019-05-25T08:20:33.392Z,96547.17
2019-05-25T08:23:02.882Z,96559.61
2019-05-25T08:25:32.345Z,96548.88
2019-05-25T08:28:01.912Z,96549.89
2019-05-25T08:30:31.447Z,96555.10
2019-05-25T08:33:01.047Z,96557.14
2019-05-25T08:35:30.578Z,96555.00
2019-05-25T08:38:00.165Z,96561.21
2019-05-25T08:40:29.605Z,96557.48
2019-05-25T08:42:59.134Z,96563.12
2019-05-25T08:45:28.650Z,96562.15
2019-05-25T08:47:58.217Z,96560.94
2019-05-25T08:50:37.916Z,96564.86
2019-05-25T08:52:59.192Z,96560.04
2019-05-25T09:27:39.469Z,96569.11
2019-05-25T09:30:09.400Z,96562.14
2019-05-25T09:32:38.911Z,96568.02
2019-05-25T09:35:09.210Z,96558.75
2019-05-25T09:37:38.602Z,96565.53
2019-05-25T09:40:08.395Z,96564.14
2019-05-25T09:42:38.515Z,96559.60
2019-05-25T09:45:09.872Z,96559.16
2019-05-25T09:47:39.347Z,96555.50
2019-05-25T09:50:09.301Z,96561.85
2019-05-25T09:52:38.723Z,96554.34
2019-05-25T09:55:09.005Z,96549.88
2019-05-25T09:57:41.600Z,96554.70
2019-05-25T10:00:10.923Z,96551.32
2019-05-25T10:02:40.504Z,96545.91
2019-05-25T10:05:11.109Z,96546.91
2019-05-25T10:07:40.779Z,96546.23
2019-05-25T10:10:11.979Z,96554.73
2019-05-25T10:12:41.842Z,96543.13
2019-05-25T10:15:12.109Z,96548.56
2019-05-25T10:17:41.821Z,96557.28
2019-05-25T10:20:15.015Z,96551.67
2019-05-25T10:22:44.470Z,96555.91
2019-05-25T10:25:14.231Z,96557.38
2019-05-25T10:27:43.774Z,96560.45
2019-05-25T10:30:17.379Z,96570.86
2019-05-25T10:32:46.967Z,96568.78
2019-05-25T10:35:16.869Z,96559.33
2019-05-25T10:37:46.376Z,96579.42
2019-05-25T10:40:16.049Z,96590.94
2019-05-25T10:42:48.499Z,96581.45
2019-05-25T10:45:18.354Z,96577.66
2019-05-25T10:47:48.140Z,96593.08
2019-05-25T10:50:18.293Z,96580.63
2019-05-25T10:52:48.514Z,96583.36
2019-05-25T10:55:18.518Z,96580.06
2019-05-25T10:57:48.311Z,96574.60
2019-05-25T11:00:40.927Z,96562.85
2019-05-25T11:03:10.455Z,96568.81
2019-05-25T11:05:40.196Z,96586.98
2019-05-25T11:08:09.897Z,96588.09
2019-05-25T11:10:39.496Z,96592.58
2019-05-25T11:13:09.071Z,96586.98
2019-05-25T11:15:38.628Z,96580.59
2019-05-25T11:18:08.285Z,96575.62
2019-05-25T11:20:37.844Z,96584.59
2019-05-25T11:23:07.355Z,96574.95
2019-05-25T11:25:36.914Z,96568.98
2019-05-25T11:28:08.450Z,96562.78
2019-05-25T11:30:37.661Z,96560.29
2019-05-25T11:33:07.214Z,96554.70
2019-05-25T11:35:36.796Z,96554.57
2019-05-25T11:38:06.354Z,96552.84
2019-05-25T11:40:35.982Z,96543.88
2019-05-25T11:43:05.503Z,96545.55
2019-05-25T11:45:35.069Z,96548.89
2019-05-25T11:48:04.757Z,96544.25
2019-05-25T11:50:34.269Z,96542.67
2019-05-25T11:53:05.988Z,96533.91
2019-05-25T11:55:35.315Z,96533.97
2019-05-25T11:58:04.817Z,96524.36
2019-05-25T12:00:34.464Z,96509.96
2019-05-25T12:03:04.089Z,96529.58
2019-05-25T12:05:33.761Z,96531.91
2019-05-25T12:08:03.318Z,96533.77
2019-05-25T12:10:32.883Z,96534.53
2019-05-25T12:13:02.299Z,96528.95
2019-05-25T12:15:31.872Z,96532.58
2019-05-25T12:18:01.336Z,96534.99
2019-05-25T12:20:30.822Z,96535.20
2019-05-25T12:23:00.418Z,96538.63
2019-05-25T12:25:29.897Z,96533.46
2019-05-25T12:27:59.472Z,96539.61
2019-05-25T12:30:40.228Z,96546.05
2019-05-25T12:33:00.415Z,96542.84
2019-05-25T12:35:30.030Z,96542.34
2019-05-25T12:37:59.576Z,96542.63
2019-05-25T12:40:29.017Z,96516.31
2019-05-25T12:42:58.541Z,96540.94
2019-05-25T12:45:28.185Z,96541.13
2019-05-25T12:47:57.789Z,96546.34
2019-05-25T12:50:27.419Z,96544.84
2019-05-25T12:52:57.205Z,96548.37
2019-05-25T12:55:26.865Z,96546.27
2019-05-25T12:57:56.304Z,96549.60
2019-05-25T13:00:25.814Z,96546.78
2019-05-25T13:02:55.698Z,96550.41
2019-05-25T13:05:33.551Z,96549.63
2019-05-25T13:07:56.534Z,96552.51
2019-05-25T13:10:26.780Z,96556.06
2019-05-25T13:12:57.797Z,96550.13
2019-05-25T13:15:27.740Z,96539.63
2019-05-25T13:17:57.557Z,96542.27
2019-05-25T13:20:27.516Z,96540.58
2019-05-25T13:22:57.209Z,96541.66
2019-05-25T13:25:26.742Z,96537.69
2019-05-25T13:27:56.318Z,96535.78
2019-05-25T13:30:25.933Z,96528.28
2019-05-25T13:32:55.486Z,96529.25
2019-05-25T13:35:25.068Z,96528.98
2019-05-25T13:37:54.615Z,96523.55
2019-05-25T13:40:25.165Z,96509.87
2019-05-25T13:42:54.755Z,96519.78
2019-05-25T13:45:24.264Z,96516.47
2019-05-25T13:47:53.969Z,96510.63
2019-05-25T13:50:23.485Z,96517.06
2019-05-25T13:52:53.046Z,96518.10
2019-05-25T13:55:22.569Z,96515.94
2019-05-25T13:57:52.387Z,96509.52
2019-05-25T14:00:22.359Z,96507.03
2019-05-25T14:02:51.781Z,96501.80
2019-05-25T14:05:21.475Z,96496.45
2019-05-25T14:07:50.941Z,96502.75
2019-05-25T14:10:20.633Z,96500.61
2019-05-25T14:12:50.174Z,96500.59
2019-05-25T14:15:19.752Z,96511.73
2019-05-25T14:17:49.269Z,96505.43
2019-05-25T14:20:18.969Z,96503.52
2019-05-25T14:22:48.438Z,96504.82
2019-05-25T14:25:17.964Z,96508.84
2019-05-25T14:27:47.433Z,96503.14
2019-05-25T14:30:19.084Z,96505.16
2019-05-25T14:32:48.521Z,96509.61
2019-05-25T14:35:18.070Z,96512.09
2019-05-25T14:37:47.525Z,96511.71
2019-05-25T14:40:17.564Z,96510.17
2019-05-25T14:42:47.092Z,96521.38
2019-05-25T14:45:16.751Z,96525.67
2019-05-25T14:47:46.278Z,96531.26
2019-05-25T14:50:16.271Z,96541.23
2019-05-25T14:52:45.842Z,96563.03
2019-05-25T14:55:15.450Z,96572.44
2019-05-25T14:57:45.198Z,96591.66
2019-05-25T15:00:15.684Z,96605.97
2019-05-25T15:02:45.182Z,96613.73
2019-05-25T15:05:15.054Z,96620.55
2019-05-25T15:07:44.804Z,96631.86
2019-05-25T15:10:15.170Z,96631.67
2019-05-25T15:12:45.458Z,96634.78
2019-05-25T15:15:18.722Z,96648.31
2019-05-25T15:17:49.668Z,96641.51
2019-05-25T15:20:19.439Z,96645.55
2019-05-25T15:22:52.138Z,96648.89
2019-05-25T15:25:21.800Z,96656.89
2019-05-25T15:27:51.897Z,96658.89
2019-05-25T15:30:21.819Z,96656.65
2019-05-25T15:32:54.120Z,96663.70
